SAWJ/ULA METAR and TAF weather

Enter ICAO airport designator
Station Type Date Time Source
SAWJ METAR 2019/05/01 14:35 UTC NOAA

SAWJ 011435Z 32020KT 9999 SCT035 BKN080 07/M01 Q0989


Station Type Date Time Source
SAWJ Decoded METAR 2019/05/01 14:35 UTC NOAA

San Julian Aerodrome, Argentina (SAWJ) 49-19S 067-45W 62M
May 01, 2019 - 10:35 AM EDT / 2019.05.01 1435 UTC
Wind: from the NW (320 degrees) at 23 MPH (20 KT):0
Visibility: greater than 7 mile(s):0
Sky conditions: mostly cloudy
Temperature: 44 F (7 C)
Dew Point: 30 F (-1 C)
Relative Humidity: 56%
Pressure (altimeter): 29.21 in. Hg (0989 hPa)
ob: SAWJ 011435Z 32020KT 9999 SCT035 BKN080 07/M01 Q0989
cycle: 14

Station Type Date Time Source
SAWJ TAF 2014/06/25 12:00 UTC NOAA

TAF SAWJ 251100Z 2512/2612 32025G35KT 9999 -RA BKN030 BKN045 TX06/2518Z TN02/2611Z
BECMG 2518/2520 29020G30KT NSW SCT030
BECMG 2609/2611 23020G30KT SHSN OVC015

Example: see airport list